Erfurt Bindersleben, Germany

7:59 PM CEST on July 29, 2016 (GMT +0200)
Erfurt | | Change Station

Elev 1060 ft 50.98 °N, 10.96 °E | Updated 9 minutes ago

Mostly Cloudy
Mostly Cloudy
66 °F
Feels Like 66 °F
N
6
Wind Variable Wind from South

Today
High -- | Low -- °F
--% Chance of Precip.
Yesterday
High -- | Low -- °F
Precip. -- in
Pressure 29.92 in
Visibility 6.2 miles
Clouds Few 3600 ft
Few 5600 ft
Mostly Cloudy 12000 ft
Dew Point 63 °F
Humidity 88%
Rainfall 0.00 in
Snow Depth Not available.
5:37 AM 9:06 PM
Waning Crescent, 20% visible
METAR EDDE 291750Z 19005KT 9999 VCSH FEW036 FEW056CB BKN120 19/17 Q1013 TEMPO 26015G25KT 4000 SHRA BKN014CB
Pressure 29.92 in
Visibility 6.2 miles
Clouds Few 3600 ft
Few 5600 ft
Mostly Cloudy 12000 ft
Dew Point 63 °F
Humidity 88%
Rainfall 0.00 in
Snow Depth Not available.
5:37 AM 9:06 PM
Waning Crescent, 20% visible
METAR EDDE 291750Z 19005KT 9999 VCSH FEW036 FEW056CB BKN120 19/17 Q1013 TEMPO 26015G25KT 4000 SHRA BKN014CB

10-Day Weather Forecast

×

Almanac

Astronomy

Jul. 29, 2016 Rise Set
Actual Time
Civil Twilight
Nautical Twilight
Astronomical Twilight
Moon
Length of Visible Light
Length of Day
Tomorrow will be .
, % of the Moon is Illuminated

Today's Extremes

Country Highs Country Lows

Community

WunderPhotos

Upload Photos

1,928,382 photos uploaded!

WunderBlog® & News

Nearby

Air Quality

  Air Quality AQ Index Pollutant
Not available.

Snow Depth

Station Depth Elevation

Earthquake Activity

City Distance Mag. Time & Date
Minimum magnitude displayed is 2.5.

Coastal Water Temperatures

Place Temperature

Stations

Nearby Weather Stations

Station Location Temp. Windchill Dew Point Humidity Wind Precip. Elev Updated Type